sensor_id;sensor_type;location;lat;lon;timestamp;P1;durP1;ratioP1;P2;durP2;ratioP2
5742;SDS011;2896;53.500;10.020;2023-09-08T00:00:37;9.37;;;8.37;;
5742;SDS011;2896;53.500;10.020;2023-09-08T00:03:04;8.13;;;7.43;;
5742;SDS011;2896;53.500;10.020;2023-09-08T00:05:31;8.37;;;7.57;;
5742;SDS011;2896;53.500;10.020;2023-09-08T00:07:57;8.17;;;7.37;;
5742;SDS011;2896;53.500;10.020;2023-09-08T00:10:24;7.67;;;7.07;;
5742;SDS011;2896;53.500;10.020;2023-09-08T00:12:52;7.47;;;6.87;;
5742;SDS011;2896;53.500;10.020;2023-09-08T00:15:18;8.00;;;7.30;;
5742;SDS011;2896;53.500;10.020;2023-09-08T00:17:45;8.67;;;7.83;;
5742;SDS011;2896;53.500;10.020;2023-09-08T00:20:12;7.60;;;7.00;;
5742;SDS011;2896;53.500;10.020;2023-09-08T00:22:40;8.10;;;7.47;;
5742;SDS011;2896;53.500;10.020;2023-09-08T00:25:06;8.07;;;7.27;;
5742;SDS011;2896;53.500;10.020;2023-09-08T00:27:33;8.03;;;7.23;;
5742;SDS011;2896;53.500;10.020;2023-09-08T00:30:01;7.57;;;6.87;;
5742;SDS011;2896;53.500;10.020;2023-09-08T00:32:28;7.40;;;6.80;;
5742;SDS011;2896;53.500;10.020;2023-09-08T00:34:55;7.90;;;7.20;;
5742;SDS011;2896;53.500;10.020;2023-09-08T00:37:21;8.20;;;7.50;;
5742;SDS011;2896;53.500;10.020;2023-09-08T00:39:49;8.67;;;7.87;;
5742;SDS011;2896;53.500;10.020;2023-09-08T00:42:15;7.43;;;6.83;;
5742;SDS011;2896;53.500;10.020;2023-09-08T00:44:42;11.93;;;6.73;;
5742;SDS011;2896;53.500;10.020;2023-09-08T00:47:10;7.83;;;7.13;;
5742;SDS011;2896;53.500;10.020;2023-09-08T00:49:37;7.80;;;7.10;;
5742;SDS011;2896;53.500;10.020;2023-09-08T00:52:04;8.37;;;7.57;;
5742;SDS011;2896;53.500;10.020;2023-09-08T00:54:31;8.17;;;7.47;;
5742;SDS011;2896;53.500;10.020;2023-09-08T00:56:58;8.87;;;8.00;;
5742;SDS011;2896;53.500;10.020;2023-09-08T00:59:28;8.00;;;7.40;;
5742;SDS011;2896;53.500;10.020;2023-09-08T01:01:55;8.20;;;7.40;;
5742;SDS011;2896;53.500;10.020;2023-09-08T01:04:23;7.93;;;7.23;;
5742;SDS011;2896;53.500;10.020;2023-09-08T01:06:50;8.43;;;7.70;;
5742;SDS011;2896;53.500;10.020;2023-09-08T01:09:17;7.40;;;6.80;;
5742;SDS011;2896;53.500;10.020;2023-09-08T01:11:44;7.63;;;7.00;;
5742;SDS011;2896;53.500;10.020;2023-09-08T01:14:11;7.57;;;7.07;;
5742;SDS011;2896;53.500;10.020;2023-09-08T01:16:39;8.73;;;8.00;;
5742;SDS011;2896;53.500;10.020;2023-09-08T01:19:06;7.83;;;7.23;;
5742;SDS011;2896;53.500;10.020;2023-09-08T01:21:45;8.30;;;7.50;;
5742;SDS011;2896;53.500;10.020;2023-09-08T01:24:36;9.40;;;8.50;;
5742;SDS011;2896;53.500;10.020;2023-09-08T01:27:14;8.03;;;7.37;;
5742;SDS011;2896;53.500;10.020;2023-09-08T01:29:44;10.93;;;7.87;;
5742;SDS011;2896;53.500;10.020;2023-09-08T01:32:13;8.30;;;7.50;;
5742;SDS011;2896;53.500;10.020;2023-09-08T01:34:40;8.63;;;7.93;;
5742;SDS011;2896;53.500;10.020;2023-09-08T01:37:06;8.70;;;7.90;;
5742;SDS011;2896;53.500;10.020;2023-09-08T01:39:34;10.33;;;9.43;;
5742;SDS011;2896;53.500;10.020;2023-09-08T01:42:01;9.40;;;8.50;;
5742;SDS011;2896;53.500;10.020;2023-09-08T01:44:30;8.40;;;7.70;;
5742;SDS011;2896;53.500;10.020;2023-09-08T01:46:56;8.80;;;8.10;;
5742;SDS011;2896;53.500;10.020;2023-09-08T01:49:26;8.60;;;7.90;;
5742;SDS011;2896;53.500;10.020;2023-09-08T01:51:53;8.83;;;8.13;;
5742;SDS011;2896;53.500;10.020;2023-09-08T01:54:21;9.10;;;8.20;;
5742;SDS011;2896;53.500;10.020;2023-09-08T01:56:47;9.00;;;8.20;;
5742;SDS011;2896;53.500;10.020;2023-09-08T01:59:15;9.00;;;8.23;;
5742;SDS011;2896;53.500;10.020;2023-09-08T02:01:43;10.13;;;8.10;;
5742;SDS011;2896;53.500;10.020;2023-09-08T02:04:09;8.83;;;8.03;;
5742;SDS011;2896;53.500;10.020;2023-09-08T02:06:36;9.37;;;8.57;;
5742;SDS011;2896;53.500;10.020;2023-09-08T02:09:03;8.93;;;8.20;;
5742;SDS011;2896;53.500;10.020;2023-09-08T02:11:30;8.30;;;7.57;;
5742;SDS011;2896;53.500;10.020;2023-09-08T02:13:56;8.20;;;7.60;;
5742;SDS011;2896;53.500;10.020;2023-09-08T02:16:23;8.77;;;7.80;;
5742;SDS011;2896;53.500;10.020;2023-09-08T02:18:51;8.00;;;7.37;;
5742;SDS011;2896;53.500;10.020;2023-09-08T02:21:17;8.20;;;7.50;;
5742;SDS011;2896;53.500;10.020;2023-09-08T02:23:44;8.20;;;7.57;;
5742;SDS011;2896;53.500;10.020;2023-09-08T02:26:11;8.20;;;7.30;;
5742;SDS011;2896;53.500;10.020;2023-09-08T02:28:37;8.27;;;7.53;;
5742;SDS011;2896;53.500;10.020;2023-09-08T02:31:04;7.93;;;7.27;;
5742;SDS011;2896;53.500;10.020;2023-09-08T02:33:31;7.90;;;7.20;;
5742;SDS011;2896;53.500;10.020;2023-09-08T02:36:02;7.70;;;7.00;;
5742;SDS011;2896;53.500;10.020;2023-09-08T02:38:30;8.60;;;7.90;;
5742;SDS011;2896;53.500;10.020;2023-09-08T02:40:56;8.10;;;7.50;;
5742;SDS011;2896;53.500;10.020;2023-09-08T02:43:23;8.67;;;7.90;;
5742;SDS011;2896;53.500;10.020;2023-09-08T02:45:49;6.80;;;6.33;;
5742;SDS011;2896;53.500;10.020;2023-09-08T02:48:16;8.50;;;7.83;;
5742;SDS011;2896;53.500;10.020;2023-09-08T02:50:43;8.50;;;7.70;;
5742;SDS011;2896;53.500;10.020;2023-09-08T02:53:11;8.97;;;8.07;;
5742;SDS011;2896;53.500;10.020;2023-09-08T02:55:38;9.00;;;7.47;;
5742;SDS011;2896;53.500;10.020;2023-09-08T02:58:05;8.80;;;8.07;;
5742;SDS011;2896;53.500;10.020;2023-09-08T03:00:31;8.43;;;7.70;;
5742;SDS011;2896;53.500;10.020;2023-09-08T03:02:58;8.43;;;7.63;;
5742;SDS011;2896;53.500;10.020;2023-09-08T03:05:25;8.23;;;7.53;;
5742;SDS011;2896;53.500;10.020;2023-09-08T03:07:51;8.63;;;7.93;;
5742;SDS011;2896;53.500;10.020;2023-09-08T03:10:19;8.80;;;8.00;;
5742;SDS011;2896;53.500;10.020;2023-09-08T03:12:46;7.80;;;7.10;;
5742;SDS011;2896;53.500;10.020;2023-09-08T03:15:13;7.87;;;7.27;;
5742;SDS011;2896;53.500;10.020;2023-09-08T03:17:39;8.70;;;7.90;;
5742;SDS011;2896;53.500;10.020;2023-09-08T03:20:06;7.73;;;7.13;;
5742;SDS011;2896;53.500;10.020;2023-09-08T03:22:35;9.70;;;8.80;;
5742;SDS011;2896;53.500;10.020;2023-09-08T03:25:02;10.00;;;9.00;;
5742;SDS011;2896;53.500;10.020;2023-09-08T03:27:33;8.87;;;8.07;;
5742;SDS011;2896;53.500;10.020;2023-09-08T03:30:00;8.33;;;7.60;;
5742;SDS011;2896;53.500;10.020;2023-09-08T03:32:28;8.50;;;7.80;;
5742;SDS011;2896;53.500;10.020;2023-09-08T03:34:54;8.47;;;7.77;;
5742;SDS011;2896;53.500;10.020;2023-09-08T03:37:20;8.33;;;7.53;;
5742;SDS011;2896;53.500;10.020;2023-09-08T03:39:47;8.17;;;7.57;;
5742;SDS011;2896;53.500;10.020;2023-09-08T03:42:14;9.57;;;8.77;;
5742;SDS011;2896;53.500;10.020;2023-09-08T03:44:42;8.27;;;7.50;;
5742;SDS011;2896;53.500;10.020;2023-09-08T03:47:08;8.70;;;7.90;;
5742;SDS011;2896;53.500;10.020;2023-09-08T03:49:35;9.17;;;8.37;;
5742;SDS011;2896;53.500;10.020;2023-09-08T03:52:02;9.30;;;8.50;;
5742;SDS011;2896;53.500;10.020;2023-09-08T03:54:29;8.60;;;7.80;;
5742;SDS011;2896;53.500;10.020;2023-09-08T03:56:56;9.10;;;8.30;;
5742;SDS011;2896;53.500;10.020;2023-09-08T03:59:23;9.23;;;8.30;;
5742;SDS011;2896;53.500;10.020;2023-09-08T04:01:51;9.27;;;7.43;;
5742;SDS011;2896;53.500;10.020;2023-09-08T04:04:17;9.33;;;8.17;;
5742;SDS011;2896;53.500;10.020;2023-09-08T04:06:45;8.57;;;7.43;;
5742;SDS011;2896;53.500;10.020;2023-09-08T04:09:11;9.13;;;8.33;;
5742;SDS011;2896;53.500;10.020;2023-09-08T04:11:38;9.60;;;8.80;;
5742;SDS011;2896;53.500;10.020;2023-09-08T04:14:07;9.13;;;8.30;;
5742;SDS011;2896;53.500;10.020;2023-09-08T04:16:34;12.23;;;8.90;;
5742;SDS011;2896;53.500;10.020;2023-09-08T04:19:02;9.20;;;8.33;;
5742;SDS011;2896;53.500;10.020;2023-09-08T04:21:29;10.37;;;9.33;;
5742;SDS011;2896;53.500;10.020;2023-09-08T04:23:55;9.40;;;8.50;;
5742;SDS011;2896;53.500;10.020;2023-09-08T04:26:22;9.83;;;8.10;;
5742;SDS011;2896;53.500;10.020;2023-09-08T04:28:49;9.03;;;8.13;;
5742;SDS011;2896;53.500;10.020;2023-09-08T04:31:15;10.50;;;9.10;;
5742;SDS011;2896;53.500;10.020;2023-09-08T04:33:43;10.60;;;9.60;;
5742;SDS011;2896;53.500;10.020;2023-09-08T04:36:11;8.73;;;8.00;;
5742;SDS011;2896;53.500;10.020;2023-09-08T04:38:38;13.53;;;8.43;;
5742;SDS011;2896;53.500;10.020;2023-09-08T04:41:06;9.93;;;8.17;;
5742;SDS011;2896;53.500;10.020;2023-09-08T04:43:33;9.80;;;8.90;;
5742;SDS011;2896;53.500;10.020;2023-09-08T04:45:59;9.20;;;8.40;;
5742;SDS011;2896;53.500;10.020;2023-09-08T04:48:28;9.47;;;8.63;;
5742;SDS011;2896;53.500;10.020;2023-09-08T04:50:54;8.83;;;8.10;;
5742;SDS011;2896;53.500;10.020;2023-09-08T04:53:22;10.23;;;9.23;;
5742;SDS011;2896;53.500;10.020;2023-09-08T04:55:49;11.63;;;9.47;;
5742;SDS011;2896;53.500;10.020;2023-09-08T04:58:16;9.97;;;9.10;;
5742;SDS011;2896;53.500;10.020;2023-09-08T05:00:42;8.67;;;7.87;;
5742;SDS011;2896;53.500;10.020;2023-09-08T05:03:10;9.70;;;8.80;;
5742;SDS011;2896;53.500;10.020;2023-09-08T05:05:36;10.30;;;9.40;;
5742;SDS011;2896;53.500;10.020;2023-09-08T05:08:03;11.73;;;10.63;;
5742;SDS011;2896;53.500;10.020;2023-09-08T05:10:32;12.40;;;11.20;;
5742;SDS011;2896;53.500;10.020;2023-09-08T05:12:58;11.93;;;10.63;;
5742;SDS011;2896;53.500;10.020;2023-09-08T05:15:25;15.23;;;11.47;;
5742;SDS011;2896;53.500;10.020;2023-09-08T05:17:52;14.37;;;12.00;;
5742;SDS011;2896;53.500;10.020;2023-09-08T05:20:19;15.10;;;11.97;;
5742;SDS011;2896;53.500;10.020;2023-09-08T05:22:45;25.90;;;17.30;;
5742;SDS011;2896;53.500;10.020;2023-09-08T05:25:12;18.63;;;15.03;;
5742;SDS011;2896;53.500;10.020;2023-09-08T05:27:40;17.50;;;13.90;;
5742;SDS011;2896;53.500;10.020;2023-09-08T05:30:07;12.77;;;11.60;;
5742;SDS011;2896;53.500;10.020;2023-09-08T05:32:34;14.67;;;13.00;;
5742;SDS011;2896;53.500;10.020;2023-09-08T05:35:01;21.57;;;17.00;;
5742;SDS011;2896;53.500;10.020;2023-09-08T05:37:31;18.30;;;16.50;;
5742;SDS011;2896;53.500;10.020;2023-09-08T05:39:57;16.17;;;14.43;;
5742;SDS011;2896;53.500;10.020;2023-09-08T05:42:24;20.30;;;18.20;;
5742;SDS011;2896;53.500;10.020;2023-09-08T05:44:52;23.23;;;18.07;;
5742;SDS011;2896;53.500;10.020;2023-09-08T05:47:19;20.40;;;18.20;;
5742;SDS011;2896;53.500;10.020;2023-09-08T05:49:46;21.73;;;18.27;;
5742;SDS011;2896;53.500;10.020;2023-09-08T05:52:15;22.27;;;19.10;;
5742;SDS011;2896;53.500;10.020;2023-09-08T05:54:41;24.43;;;19.17;;
5742;SDS011;2896;53.500;10.020;2023-09-08T05:57:08;34.63;;;19.67;;
5742;SDS011;2896;53.500;10.020;2023-09-08T05:59:34;30.03;;;21.17;;
5742;SDS011;2896;53.500;10.020;2023-09-08T06:02:03;32.17;;;24.70;;
5742;SDS011;2896;53.500;10.020;2023-09-08T06:04:29;29.43;;;25.07;;
5742;SDS011;2896;53.500;10.020;2023-09-08T06:06:57;31.53;;;25.50;;
5742;SDS011;2896;53.500;10.020;2023-09-08T06:09:24;30.43;;;24.80;;
5742;SDS011;2896;53.500;10.020;2023-09-08T06:11:51;30.97;;;24.30;;
5742;SDS011;2896;53.500;10.020;2023-09-08T06:14:18;29.20;;;22.80;;
5742;SDS011;2896;53.500;10.020;2023-09-08T06:16:44;25.70;;;21.10;;
5742;SDS011;2896;53.500;10.020;2023-09-08T06:19:13;23.50;;;20.20;;
5742;SDS011;2896;53.500;10.020;2023-09-08T06:21:39;20.97;;;18.03;;
5742;SDS011;2896;53.500;10.020;2023-09-08T06:24:06;21.93;;;18.17;;
5742;SDS011;2896;53.500;10.020;2023-09-08T06:26:33;22.67;;;16.77;;
5742;SDS011;2896;53.500;10.020;2023-09-08T06:29:00;22.70;;;17.97;;
5742;SDS011;2896;53.500;10.020;2023-09-08T06:31:26;19.90;;;16.43;;
5742;SDS011;2896;53.500;10.020;2023-09-08T06:33:53;16.27;;;14.57;;
5742;SDS011;2896;53.500;10.020;2023-09-08T06:36:21;20.37;;;14.80;;
5742;SDS011;2896;53.500;10.020;2023-09-08T06:38:48;17.50;;;15.20;;
5742;SDS011;2896;53.500;10.020;2023-09-08T06:41:14;17.70;;;15.13;;
5742;SDS011;2896;53.500;10.020;2023-09-08T06:43:45;16.27;;;14.67;;
5742;SDS011;2896;53.500;10.020;2023-09-08T06:46:11;16.47;;;13.00;;
5742;SDS011;2896;53.500;10.020;2023-09-08T06:48:38;18.23;;;14.97;;
5742;SDS011;2896;53.500;10.020;2023-09-08T06:51:04;19.63;;;13.70;;
5742;SDS011;2896;53.500;10.020;2023-09-08T06:53:32;19.90;;;14.27;;
5742;SDS011;2896;53.500;10.020;2023-09-08T06:55:59;13.83;;;12.43;;
5742;SDS011;2896;53.500;10.020;2023-09-08T06:58:26;14.87;;;13.37;;
5742;SDS011;2896;53.500;10.020;2023-09-08T07:00:53;16.17;;;14.00;;
5742;SDS011;2896;53.500;10.020;2023-09-08T07:03:19;14.87;;;13.13;;
5742;SDS011;2896;53.500;10.020;2023-09-08T07:05:47;14.17;;;12.77;;
5742;SDS011;2896;53.500;10.020;2023-09-08T07:08:16;16.10;;;12.77;;
5742;SDS011;2896;53.500;10.020;2023-09-08T07:10:45;18.20;;;13.20;;
5742;SDS011;2896;53.500;10.020;2023-09-08T07:13:17;13.97;;;12.30;;
5742;SDS011;2896;53.500;10.020;2023-09-08T07:15:44;12.33;;;11.13;;
5742;SDS011;2896;53.500;10.020;2023-09-08T07:18:11;26.87;;;13.73;;
5742;SDS011;2896;53.500;10.020;2023-09-08T07:20:37;13.13;;;11.83;;
5742;SDS011;2896;53.500;10.020;2023-09-08T07:23:04;13.63;;;11.77;;
5742;SDS011;2896;53.500;10.020;2023-09-08T07:25:31;17.30;;;13.07;;
5742;SDS011;2896;53.500;10.020;2023-09-08T07:27:59;15.13;;;12.37;;
5742;SDS011;2896;53.500;10.020;2023-09-08T07:30:26;17.93;;;12.60;;
5742;SDS011;2896;53.500;10.020;2023-09-08T07:32:53;13.57;;;12.27;;
5742;SDS011;2896;53.500;10.020;2023-09-08T07:35:20;14.00;;;11.40;;
5742;SDS011;2896;53.500;10.020;2023-09-08T07:37:49;15.37;;;12.27;;
5742;SDS011;2896;53.500;10.020;2023-09-08T07:40:16;11.80;;;10.50;;
5742;SDS011;2896;53.500;10.020;2023-09-08T07:42:42;19.10;;;12.73;;
5742;SDS011;2896;53.500;10.020;2023-09-08T07:45:10;11.87;;;10.50;;
5742;SDS011;2896;53.500;10.020;2023-09-08T07:47:37;11.57;;;10.30;;
5742;SDS011;2896;53.500;10.020;2023-09-08T07:52:46;13.40;;;12.10;;
5742;SDS011;2896;53.500;10.020;2023-09-08T07:55:13;12.57;;;10.90;;
5742;SDS011;2896;53.500;10.020;2023-09-08T07:57:41;16.00;;;12.07;;
5742;SDS011;2896;53.500;10.020;2023-09-08T08:00:08;14.77;;;10.90;;
5742;SDS011;2896;53.500;10.020;2023-09-08T08:02:37;17.27;;;10.50;;
5742;SDS011;2896;53.500;10.020;2023-09-08T08:05:06;14.80;;;11.63;;
5742;SDS011;2896;53.500;10.020;2023-09-08T08:07:32;14.23;;;10.10;;
5742;SDS011;2896;53.500;10.020;2023-09-08T08:09:59;12.20;;;10.17;;
5742;SDS011;2896;53.500;10.020;2023-09-08T08:12:27;12.80;;;10.63;;
5742;SDS011;2896;53.500;10.020;2023-09-08T08:14:53;11.67;;;10.47;;
5742;SDS011;2896;53.500;10.020;2023-09-08T08:17:21;10.87;;;9.87;;
5742;SDS011;2896;53.500;10.020;2023-09-08T08:19:48;13.57;;;11.00;;
5742;SDS011;2896;53.500;10.020;2023-09-08T08:22:15;16.93;;;11.07;;
5742;SDS011;2896;53.500;10.020;2023-09-08T08:24:41;10.27;;;9.03;;
5742;SDS011;2896;53.500;10.020;2023-09-08T08:27:08;12.20;;;10.83;;
5742;SDS011;2896;53.500;10.020;2023-09-08T08:29:35;13.00;;;9.73;;
5742;SDS011;2896;53.500;10.020;2023-09-08T08:32:01;14.80;;;10.00;;
5742;SDS011;2896;53.500;10.020;2023-09-08T08:34:29;13.00;;;10.77;;
5742;SDS011;2896;53.500;10.020;2023-09-08T08:36:56;13.20;;;10.07;;
5742;SDS011;2896;53.500;10.020;2023-09-08T08:39:23;17.07;;;10.10;;
5742;SDS011;2896;53.500;10.020;2023-09-08T08:41:49;15.43;;;10.00;;
5742;SDS011;2896;53.500;10.020;2023-09-08T08:44:17;9.53;;;8.60;;
5742;SDS011;2896;53.500;10.020;2023-09-08T08:46:44;12.50;;;9.80;;
5742;SDS011;2896;53.500;10.020;2023-09-08T08:49:12;13.70;;;10.93;;
5742;SDS011;2896;53.500;10.020;2023-09-08T08:51:43;10.43;;;9.10;;
5742;SDS011;2896;53.500;10.020;2023-09-08T08:54:11;13.43;;;9.97;;
5742;SDS011;2896;53.500;10.020;2023-09-08T08:56:40;10.90;;;9.40;;
5742;SDS011;2896;53.500;10.020;2023-09-08T08:59:08;9.70;;;8.70;;
5742;SDS011;2896;53.500;10.020;2023-09-08T09:01:36;12.33;;;9.27;;
5742;SDS011;2896;53.500;10.020;2023-09-08T09:04:05;12.63;;;9.23;;
5742;SDS011;2896;53.500;10.020;2023-09-08T09:06:31;12.27;;;10.87;;
5742;SDS011;2896;53.500;10.020;2023-09-08T09:09:00;11.57;;;9.40;;
5742;SDS011;2896;53.500;10.020;2023-09-08T09:11:29;9.73;;;8.73;;
5742;SDS011;2896;53.500;10.020;2023-09-08T09:13:56;12.17;;;9.50;;
5742;SDS011;2896;53.500;10.020;2023-09-08T09:16:22;14.43;;;9.57;;
5742;SDS011;2896;53.500;10.020;2023-09-08T09:18:56;9.33;;;8.40;;
5742;SDS011;2896;53.500;10.020;2023-09-08T09:21:23;9.17;;;8.37;;
5742;SDS011;2896;53.500;10.020;2023-09-08T09:23:51;12.47;;;9.90;;
5742;SDS011;2896;53.500;10.020;2023-09-08T09:26:24;10.80;;;8.67;;
5742;SDS011;2896;53.500;10.020;2023-09-08T09:28:52;10.13;;;9.07;;
5742;SDS011;2896;53.500;10.020;2023-09-08T09:31:22;10.83;;;8.73;;
5742;SDS011;2896;53.500;10.020;2023-09-08T09:34:00;14.53;;;9.63;;
5742;SDS011;2896;53.500;10.020;2023-09-08T09:36:29;14.43;;;10.30;;
5742;SDS011;2896;53.500;10.020;2023-09-08T09:38:57;13.53;;;9.00;;
5742;SDS011;2896;53.500;10.020;2023-09-08T09:41:27;13.30;;;9.43;;
5742;SDS011;2896;53.500;10.020;2023-09-08T09:43:55;11.10;;;9.30;;
5742;SDS011;2896;53.500;10.020;2023-09-08T09:46:22;12.10;;;8.47;;
5742;SDS011;2896;53.500;10.020;2023-09-08T09:48:50;15.27;;;8.43;;
5742;SDS011;2896;53.500;10.020;2023-09-08T09:51:18;16.30;;;8.27;;
5742;SDS011;2896;53.500;10.020;2023-09-08T09:53:45;9.70;;;8.70;;
5742;SDS011;2896;53.500;10.020;2023-09-08T09:56:13;12.20;;;8.40;;
5742;SDS011;2896;53.500;10.020;2023-09-08T09:58:42;16.17;;;8.57;;
5742;SDS011;2896;53.500;10.020;2023-09-08T10:01:10;12.10;;;8.00;;
5742;SDS011;2896;53.500;10.020;2023-09-08T10:03:37;10.27;;;7.40;;
5742;SDS011;2896;53.500;10.020;2023-09-08T10:06:05;15.43;;;8.60;;
5742;SDS011;2896;53.500;10.020;2023-09-08T10:08:34;8.97;;;8.03;;
5742;SDS011;2896;53.500;10.020;2023-09-08T10:11:03;8.83;;;8.03;;
5742;SDS011;2896;53.500;10.020;2023-09-08T10:13:33;10.80;;;7.73;;
5742;SDS011;2896;53.500;10.020;2023-09-08T10:16:07;15.40;;;8.73;;
5742;SDS011;2896;53.500;10.020;2023-09-08T10:18:34;10.73;;;8.17;;
5742;SDS011;2896;53.500;10.020;2023-09-08T10:21:03;15.27;;;8.73;;
5742;SDS011;2896;53.500;10.020;2023-09-08T10:23:33;18.13;;;8.80;;
5742;SDS011;2896;53.500;10.020;2023-09-08T10:26:02;8.03;;;7.27;;
5742;SDS011;2896;53.500;10.020;2023-09-08T10:28:32;12.63;;;7.03;;
5742;SDS011;2896;53.500;10.020;2023-09-08T10:30:59;12.80;;;7.80;;
5742;SDS011;2896;53.500;10.020;2023-09-08T10:33:27;11.30;;;7.83;;
5742;SDS011;2896;53.500;10.020;2023-09-08T10:35:55;9.30;;;8.40;;
5742;SDS011;2896;53.500;10.020;2023-09-08T10:38:23;11.03;;;7.17;;
5742;SDS011;2896;53.500;10.020;2023-09-08T10:40:50;17.80;;;8.23;;
5742;SDS011;2896;53.500;10.020;2023-09-08T10:43:17;8.63;;;7.83;;
5742;SDS011;2896;53.500;10.020;2023-09-08T10:45:45;11.30;;;8.67;;
5742;SDS011;2896;53.500;10.020;2023-09-08T10:48:12;8.93;;;8.03;;
5742;SDS011;2896;53.500;10.020;2023-09-08T10:50:42;8.57;;;7.80;;
5742;SDS011;2896;53.500;10.020;2023-09-08T10:53:13;8.17;;;7.27;;
5742;SDS011;2896;53.500;10.020;2023-09-08T10:55:41;23.00;;;6.83;;
5742;SDS011;2896;53.500;10.020;2023-09-08T10:58:16;7.20;;;6.40;;
5742;SDS011;2896;53.500;10.020;2023-09-08T11:00:45;7.80;;;7.10;;
5742;SDS011;2896;53.500;10.020;2023-09-08T11:03:13;18.23;;;7.93;;
5742;SDS011;2896;53.500;10.020;2023-09-08T11:05:52;17.00;;;7.10;;
5742;SDS011;2896;53.500;10.020;2023-09-08T11:08:19;6.80;;;6.20;;
5742;SDS011;2896;53.500;10.020;2023-09-08T11:10:45;8.60;;;6.47;;
5742;SDS011;2896;53.500;10.020;2023-09-08T11:13:12;10.93;;;7.00;;
5742;SDS011;2896;53.500;10.020;2023-09-08T11:15:39;8.90;;;7.00;;
5742;SDS011;2896;53.500;10.020;2023-09-08T11:18:06;7.60;;;6.90;;
5742;SDS011;2896;53.500;10.020;2023-09-08T11:20:34;13.63;;;6.83;;
5742;SDS011;2896;53.500;10.020;2023-09-08T11:23:02;8.53;;;6.27;;
5742;SDS011;2896;53.500;10.020;2023-09-08T11:25:31;6.70;;;6.10;;
5742;SDS011;2896;53.500;10.020;2023-09-08T11:27:59;8.93;;;6.83;;
5742;SDS011;2896;53.500;10.020;2023-09-08T11:30:26;6.63;;;6.00;;
5742;SDS011;2896;53.500;10.020;2023-09-08T11:32:53;11.20;;;5.90;;
5742;SDS011;2896;53.500;10.020;2023-09-08T11:35:20;10.13;;;6.37;;
5742;SDS011;2896;53.500;10.020;2023-09-08T11:37:47;7.50;;;6.00;;
5742;SDS011;2896;53.500;10.020;2023-09-08T11:40:16;8.27;;;6.20;;
5742;SDS011;2896;53.500;10.020;2023-09-08T11:42:44;8.10;;;6.17;;
5742;SDS011;2896;53.500;10.020;2023-09-08T11:45:11;6.80;;;5.50;;
5742;SDS011;2896;53.500;10.020;2023-09-08T11:47:39;6.33;;;5.50;;
5742;SDS011;2896;53.500;10.020;2023-09-08T11:50:09;7.50;;;5.53;;
5742;SDS011;2896;53.500;10.020;2023-09-08T11:52:40;5.87;;;5.33;;
5742;SDS011;2896;53.500;10.020;2023-09-08T11:55:09;5.77;;;5.30;;
5742;SDS011;2896;53.500;10.020;2023-09-08T11:57:39;6.90;;;4.77;;
5742;SDS011;2896;53.500;10.020;2023-09-08T12:00:06;5.17;;;4.77;;
5742;SDS011;2896;53.500;10.020;2023-09-08T12:02:37;8.43;;;4.63;;
5742;SDS011;2896;53.500;10.020;2023-09-08T12:05:04;8.07;;;5.13;;
5742;SDS011;2896;53.500;10.020;2023-09-08T12:07:31;8.60;;;4.97;;
5742;SDS011;2896;53.500;10.020;2023-09-08T12:09:57;7.07;;;4.63;;
5742;SDS011;2896;53.500;10.020;2023-09-08T12:12:25;8.47;;;5.00;;
5742;SDS011;2896;53.500;10.020;2023-09-08T12:14:53;9.77;;;5.20;;
5742;SDS011;2896;53.500;10.020;2023-09-08T12:17:20;5.67;;;5.17;;
5742;SDS011;2896;53.500;10.020;2023-09-08T12:19:49;6.00;;;4.80;;
5742;SDS011;2896;53.500;10.020;2023-09-08T12:22:16;5.93;;;5.40;;
5742;SDS011;2896;53.500;10.020;2023-09-08T12:24:48;6.80;;;5.40;;
5742;SDS011;2896;53.500;10.020;2023-09-08T12:27:16;4.77;;;4.50;;
5742;SDS011;2896;53.500;10.020;2023-09-08T12:29:51;4.63;;;4.33;;
5742;SDS011;2896;53.500;10.020;2023-09-08T12:32:20;4.70;;;4.40;;
5742;SDS011;2896;53.500;10.020;2023-09-08T12:34:46;13.00;;;4.87;;
5742;SDS011;2896;53.500;10.020;2023-09-08T12:37:13;4.93;;;4.53;;
5742;SDS011;2896;53.500;10.020;2023-09-08T12:39:40;10.23;;;5.17;;
5742;SDS011;2896;53.500;10.020;2023-09-08T12:42:09;4.23;;;3.93;;
5742;SDS011;2896;53.500;10.020;2023-09-08T12:44:36;8.33;;;4.43;;
5742;SDS011;2896;53.500;10.020;2023-09-08T12:47:04;6.63;;;4.37;;
5742;SDS011;2896;53.500;10.020;2023-09-08T12:49:31;9.03;;;4.33;;
5742;SDS011;2896;53.500;10.020;2023-09-08T12:51:57;8.40;;;4.50;;
5742;SDS011;2896;53.500;10.020;2023-09-08T12:54:24;5.77;;;5.27;;
5742;SDS011;2896;53.500;10.020;2023-09-08T12:56:51;5.90;;;4.37;;
5742;SDS011;2896;53.500;10.020;2023-09-08T12:59:18;5.17;;;4.73;;
5742;SDS011;2896;53.500;10.020;2023-09-08T13:01:44;7.00;;;4.50;;
5742;SDS011;2896;53.500;10.020;2023-09-08T13:04:12;7.07;;;4.53;;
5742;SDS011;2896;53.500;10.020;2023-09-08T13:06:39;10.07;;;5.10;;
5742;SDS011;2896;53.500;10.020;2023-09-08T13:09:06;4.90;;;4.03;;
5742;SDS011;2896;53.500;10.020;2023-09-08T13:11:35;4.50;;;4.30;;
5742;SDS011;2896;53.500;10.020;2023-09-08T13:14:02;4.40;;;4.10;;
5742;SDS011;2896;53.500;10.020;2023-09-08T13:16:29;5.40;;;4.90;;
5742;SDS011;2896;53.500;10.020;2023-09-08T13:18:55;5.90;;;5.40;;
5742;SDS011;2896;53.500;10.020;2023-09-08T13:21:23;4.50;;;4.30;;
5742;SDS011;2896;53.500;10.020;2023-09-08T13:23:50;4.70;;;4.40;;
5742;SDS011;2896;53.500;10.020;2023-09-08T13:26:17;4.60;;;4.30;;
5742;SDS011;2896;53.500;10.020;2023-09-08T13:28:43;5.40;;;4.90;;
5742;SDS011;2896;53.500;10.020;2023-09-08T13:31:10;5.50;;;5.10;;
5742;SDS011;2896;53.500;10.020;2023-09-08T13:33:37;5.83;;;5.20;;
5742;SDS011;2896;53.500;10.020;2023-09-08T13:36:06;5.33;;;4.50;;
5742;SDS011;2896;53.500;10.020;2023-09-08T13:38:34;5.50;;;4.90;;
5742;SDS011;2896;53.500;10.020;2023-09-08T13:41:01;5.40;;;4.97;;
5742;SDS011;2896;53.500;10.020;2023-09-08T13:43:28;7.40;;;5.20;;
5742;SDS011;2896;53.500;10.020;2023-09-08T13:45:54;5.53;;;5.03;;
5742;SDS011;2896;53.500;10.020;2023-09-08T13:48:21;5.93;;;5.00;;
5742;SDS011;2896;53.500;10.020;2023-09-08T13:50:48;8.20;;;5.97;;
5742;SDS011;2896;53.500;10.020;2023-09-08T13:53:14;11.27;;;5.63;;
5742;SDS011;2896;53.500;10.020;2023-09-08T13:55:42;5.77;;;5.27;;
5742;SDS011;2896;53.500;10.020;2023-09-08T13:58:11;6.90;;;5.07;;
5742;SDS011;2896;53.500;10.020;2023-09-08T14:00:37;6.37;;;4.73;;
5742;SDS011;2896;53.500;10.020;2023-09-08T14:03:04;5.73;;;5.23;;
5742;SDS011;2896;53.500;10.020;2023-09-08T14:05:31;5.60;;;5.10;;
5742;SDS011;2896;53.500;10.020;2023-09-08T14:07:58;7.70;;;5.70;;
5742;SDS011;2896;53.500;10.020;2023-09-08T14:10:25;5.67;;;5.13;;
5742;SDS011;2896;53.500;10.020;2023-09-08T14:12:53;12.47;;;5.20;;
5742;SDS011;2896;53.500;10.020;2023-09-08T14:15:19;6.37;;;5.03;;
5742;SDS011;2896;53.500;10.020;2023-09-08T14:17:46;5.73;;;5.33;;
5742;SDS011;2896;53.500;10.020;2023-09-08T14:20:13;4.87;;;4.57;;
5742;SDS011;2896;53.500;10.020;2023-09-08T14:22:40;5.77;;;5.17;;
5742;SDS011;2896;53.500;10.020;2023-09-08T14:25:07;8.77;;;4.97;;
5742;SDS011;2896;53.500;10.020;2023-09-08T14:27:35;6.03;;;5.30;;
5742;SDS011;2896;53.500;10.020;2023-09-08T14:30:03;9.93;;;5.40;;
5742;SDS011;2896;53.500;10.020;2023-09-08T14:32:31;5.77;;;4.97;;
5742;SDS011;2896;53.500;10.020;2023-09-08T14:34:58;6.30;;;5.23;;
5742;SDS011;2896;53.500;10.020;2023-09-08T14:37:24;5.50;;;5.00;;
5742;SDS011;2896;53.500;10.020;2023-09-08T14:39:51;9.83;;;5.70;;
5742;SDS011;2896;53.500;10.020;2023-09-08T14:42:18;9.93;;;5.47;;
5742;SDS011;2896;53.500;10.020;2023-09-08T14:44:44;6.07;;;4.77;;
5742;SDS011;2896;53.500;10.020;2023-09-08T14:47:12;6.90;;;4.83;;
5742;SDS011;2896;53.500;10.020;2023-09-08T14:49:39;5.60;;;5.07;;
5742;SDS011;2896;53.500;10.020;2023-09-08T14:52:06;7.70;;;5.40;;
5742;SDS011;2896;53.500;10.020;2023-09-08T14:54:32;5.50;;;5.10;;
5742;SDS011;2896;53.500;10.020;2023-09-08T14:56:59;6.10;;;5.50;;